Time;durP1;ratioP1;P1;durP2;ratioP2;P2;SDS_P1;SDS_P2;PMS_P1;PMS_P2;Temp;Humidity;BMP_temperature;BMP_pressure;BME280_temperature;BME280_humidity;BME280_pressure;Samples;Min_cycle;Max_cycle;Signal;HPM_P1;HPM_P2
2022/12/29 00:01:28;;;;;;;0.65;0.65;;;12.70;92.00;;;;;;5046354;28;20032;-74
2022/12/29 00:03:54;;;;;;;0.20;0.20;;;12.50;91.60;;;;;;5046824;28;20037;-74
2022/12/29 00:06:20;;;;;;;6.63;1.30;;;;;;;;;;5047167;28;20029;-73
2022/12/29 00:08:46;;;;;;;5.85;0.68;;;12.50;90.60;;;;;;5045481;28;20017;-73
2022/12/29 00:11:20;;;;;;;0.25;0.20;;;12.70;92.10;;;;;;5047682;28;20367;-74
2022/12/29 00:16:32;;;;;;;1.50;0.20;;;12.20;92.60;;;;;;5046956;28;20123;-73
2022/12/29 00:18:58;;;;;;;0.30;0.30;;;12.00;93.80;;;;;;5046444;28;20024;-73
2022/12/29 00:35:22;;;;;;;1.95;0.68;;;12.20;91.70;;;;;;5047114;28;20110;-73
2022/12/29 00:46:01;;;;;;;1.33;0.50;;;11.90;92.10;;;;;;5046248;28;20112;-73
2022/12/29 00:51:11;;;;;;;0.22;0.22;;;11.80;92.20;;;;;;5046647;28;20040;-73
2022/12/29 00:53:36;;;;;;;1.17;0.30;;;11.70;93.60;;;;;;5046200;28;20032;-75
2022/12/29 00:56:03;;;;;;;0.40;0.30;;;;;;;;;;5046190;28;20069;-73
2022/12/29 00:58:29;;;;;;;0.63;0.30;;;11.30;94.20;;;;;;5045901;28;20027;-73
2022/12/29 01:01:02;;;;;;;0.30;0.30;;;11.40;94.60;;;;;;5045256;28;20473;-73
2022/12/29 01:03:28;;;;;;;2.60;0.43;;;10.80;96.60;;;;;;5046395;28;20018;-73
2022/12/29 01:05:54;;;;;;;1.95;0.68;;;11.20;95.20;;;;;;5046904;28;20029;-74
2022/12/29 01:08:19;;;;;;;0.25;0.25;;;11.30;94.50;;;;;;5044991;28;20372;-73
2022/12/29 01:10:45;;;;;;;0.65;0.40;;;11.10;96.40;;;;;;5046302;28;20052;-72
2022/12/29 01:13:11;;;;;;;3.33;1.02;;;;;;;;;;5045922;28;20567;-73
2022/12/29 01:15:37;;;;;;;0.60;0.60;;;10.10;95.40;;;;;;5045996;28;20837;-73
2022/12/29 01:18:03;;;;;;;0.22;0.22;;;;;;;;;;5046487;28;20021;-73
2022/12/29 01:20:29;;;;;;;0.22;0.22;;;;;;;;;;5046164;28;20122;-74
2022/12/29 01:22:54;;;;;;;0.75;0.63;;;10.50;96.40;;;;;;5047083;28;20184;-73
2022/12/29 01:25:20;;;;;;;0.40;0.30;;;10.40;97.30;;;;;;5046729;28;20056;-73
2022/12/29 01:27:46;;;;;;;0.47;0.38;;;;;;;;;;5046618;28;20139;-73
2022/12/29 01:30:12;;;;;;;1.75;0.68;;;10.20;98.20;;;;;;5046432;28;20028;-76
2022/12/29 01:32:38;;;;;;;0.98;0.47;;;10.10;98.50;;;;;;5047173;28;20226;-73
2022/12/29 01:35:04;;;;;;;0.55;0.25;;;;;;;;;;5050274;28;20045;-73
2022/12/29 01:37:30;;;;;;;1.30;0.80;;;9.90;98.10;;;;;;5050383;28;20547;-73
2022/12/29 01:39:55;;;;;;;0.65;0.55;;;9.80;99.90;;;;;;5049071;28;20057;-73
2022/12/29 01:42:24;;;;;;;3.67;0.50;;;9.70;99.90;;;;;;5049801;28;20036;-73
2022/12/29 01:44:53;;;;;;;0.20;0.20;;;9.60;99.90;;;;;;5049148;28;20079;-72
2022/12/29 01:47:38;;;;;;;0.65;0.65;;;9.50;99.90;;;;;;5049388;28;20108;-74
2022/12/29 01:50:21;;;;;;;3.15;1.20;;;9.40;99.90;;;;;;5049268;28;20037;-73
2022/12/29 01:52:59;;;;;;;0.55;0.55;;;;;;;;;;5048609;28;20028;-74
2022/12/29 01:55:29;;;;;;;2.45;0.47;;;9.10;99.90;;;;;;5064369;28;20033;-73
2022/12/29 01:57:59;;;;;;;0.80;0.30;;;9.10;99.90;;;;;;5048201;28;20578;-74
2022/12/29 02:00:25;;;;;;;0.30;0.30;;;9.00;99.90;;;;;;5049086;28;20029;-74
2022/12/29 02:02:54;;;;;;;0.70;0.22;;;9.00;99.90;;;;;;5049068;28;20033;-74
2022/12/29 02:05:41;;;;;;;0.30;0.30;;;8.90;99.90;;;;;;5049436;28;20033;-73
2022/12/29 02:08:09;;;;;;;0.85;0.40;;;8.90;99.90;;;;;;5049299;28;20418;-74
2022/12/29 02:10:35;;;;;;;0.22;0.22;;;8.90;99.90;;;;;;5048921;28;20036;-73
2022/12/29 02:13:02;;;;;;;1.67;0.35;;;9.10;99.90;;;;;;5049600;28;20013;-73
2022/12/29 02:16:00;;;;;;;0.40;0.40;;;9.30;99.90;;;;;;5049456;28;20032;-73
2022/12/29 02:18:28;;;;;;;2.88;0.47;;;9.60;99.90;;;;;;5006056;28;20033;-73
2022/12/29 02:21:19;;;;;;;1.45;0.70;;;10.10;99.90;;;;;;5048920;28;20408;-73
2022/12/29 02:24:03;;;;;;;0.25;0.25;;;10.90;99.50;;;;;;5049441;28;20025;-73
2022/12/29 02:26:50;;;;;;;1.75;0.95;;;11.10;96.90;;;;;;5049051;28;20351;-73
2022/12/29 02:29:19;;;;;;;0.30;0.30;;;;;;;;;;5051506;28;20428;-73
2022/12/29 02:31:57;;;;;;;2.13;0.45;;;11.80;93.50;;;;;;5051746;28;20100;-73
2022/12/29 02:34:52;;;;;;;1.05;0.63;;;11.80;94.80;;;;;;5051462;28;20036;-73
2022/12/29 02:37:34;;;;;;;0.47;0.47;;;12.20;93.40;;;;;;5051486;28;20048;-73
2022/12/29 02:40:09;;;;;;;6.75;0.73;;;12.30;94.00;;;;;;5050491;28;20055;-73
2022/12/29 02:42:53;;;;;;;4.93;0.90;;;12.40;93.30;;;;;;5051410;28;20079;-72
2022/12/29 02:45:52;;;;;;;1.27;0.65;;;12.70;94.00;;;;;;5050406;28;20036;-73
2022/12/29 02:48:38;;;;;;;;;;;12.40;92.90;;;;;;5051844;28;20029;-73
2022/12/29 02:51:10;;;;;;;5.38;0.80;;;12.30;93.60;;;;;;5066291;28;20092;-72
2022/12/29 02:56:21;;;;;;;1.17;0.50;;;12.20;92.90;;;;;;5050012;28;20194;-73
2022/12/29 02:58:47;;;;;;;0.88;0.68;;;12.20;93.60;;;;;;5051096;28;20078;-73
2022/12/29 03:01:40;;;;;;;0.73;0.50;;;12.50;92.60;;;;;;5050817;28;20100;-73
2022/12/29 03:04:31;;;;;;;1.33;0.60;;;12.50;92.90;;;;;;5051200;28;20064;-73
2022/12/29 03:07:12;;;;;;;1.33;0.57;;;12.50;93.80;;;;;;5045766;28;20418;-74
2022/12/29 03:09:49;;;;;;;2.55;1.25;;;12.60;93.00;;;;;;5048364;28;20025;-74
2022/12/29 03:18:16;;;;;;;0.70;0.70;;;12.40;93.90;;;;;;5050349;28;20064;-73
2022/12/29 03:20:54;;;;;;;1.60;0.77;;;12.50;94.20;;;;;;5052268;28;20021;-73
2022/12/29 03:23:21;;;;;;;1.65;0.63;;;12.50;93.60;;;;;;5049770;28;20017;-73
2022/12/29 03:25:51;;;;;;;0.65;0.65;;;12.60;93.20;;;;;;5047983;28;20469;-74
2022/12/29 03:28:28;;;;;;;2.03;0.70;;;12.50;93.30;;;;;;5048235;28;20033;-74
2022/12/29 03:30:54;;;;;;;0.40;0.40;;;12.50;93.90;;;;;;5047853;28;20481;-74
2022/12/29 03:33:25;;;;;;;0.60;0.60;;;12.60;93.60;;;;;;5049434;28;20021;-73
2022/12/29 03:35:55;;;;;;;2.85;0.93;;;12.50;93.70;;;;;;5048393;28;20087;-73
2022/12/29 03:38:29;;;;;;;5.70;0.70;;;;;;;;;;5046166;28;20398;-73
2022/12/29 03:41:00;;;;;;;2.10;1.00;;;12.40;93.70;;;;;;5047588;28;20036;-73
2022/12/29 03:43:26;;;;;;;0.93;0.70;;;12.30;93.70;;;;;;5048196;28;20048;-73
2022/12/29 03:45:52;;;;;;;1.13;0.60;;;12.20;93.50;;;;;;5047032;28;20025;-73
2022/12/29 03:48:17;;;;;;;3.45;0.80;;;12.20;94.00;;;;;;5048662;28;20603;-73
2022/12/29 03:50:43;;;;;;;2.45;0.80;;;12.20;94.40;;;;;;5047380;28;20082;-73
2022/12/29 03:53:09;;;;;;;1.55;0.73;;;12.20;94.10;;;;;;5047504;28;20029;-74
2022/12/29 03:55:35;;;;;;;0.45;0.45;;;;;;;;;;5046502;28;20401;-74
2022/12/29 03:58:00;;;;;;;0.85;0.45;;;14.00;92.60;;;;;;5046376;28;20052;-75
2022/12/29 04:00:26;;;;;;;3.05;1.30;;;12.40;94.00;;;;;;5045820;28;20473;-74
2022/12/29 04:02:52;;;;;;;0.50;0.50;;;12.30;93.50;;;;;;5047505;28;20032;-74
2022/12/29 04:05:17;;;;;;;2.65;1.08;;;12.30;94.40;;;;;;5047199;28;20032;-73
2022/12/29 04:07:43;;;;;;;2.08;1.10;;;;;;;;;;5048021;28;20025;-74
2022/12/29 04:10:09;;;;;;;1.13;0.80;;;12.20;93.90;;;;;;5047748;28;20063;-74
2022/12/29 04:12:35;;;;;;;0.85;0.57;;;;;;;;;;5047541;28;20017;-74
2022/12/29 04:15:01;;;;;;;2.20;0.60;;;;;;;;;;5046382;28;20314;-74
2022/12/29 04:17:27;;;;;;;1.15;0.77;;;;;;;;;;5046640;28;20028;-73
2022/12/29 04:20:59;;;;;;;0.93;0.60;;;;;;;;;;5046846;28;20028;-74
2022/12/29 04:22:38;;;;;;;2.78;0.98;;;12.40;92.80;;;;;;5046756;28;20032;-74
2022/12/29 04:25:05;;;;;;;1.30;0.73;;;;;;;;;;5046288;28;20033;-73
2022/12/29 04:27:30;;;;;;;0.85;0.50;;;12.40;93.50;;;;;;5045632;28;20078;-73
2022/12/29 04:29:56;;;;;;;0.65;0.60;;;12.30;93.90;;;;;;5046950;28;20024;-73
2022/12/29 04:32:22;;;;;;;1.67;0.55;;;;;;;;;;5046798;28;20104;-74
2022/12/29 04:34:47;;;;;;;0.90;0.90;;;12.30;94.10;;;;;;5046840;28;20414;-74
2022/12/29 04:37:13;;;;;;;1.00;0.90;;;12.40;93.60;;;;;;5046584;28;20533;-73
2022/12/29 04:39:39;;;;;;;0.73;0.73;;;12.30;93.70;;;;;;5046960;28;20045;-74
2022/12/29 04:42:04;;;;;;;0.73;0.63;;;12.20;93.90;;;;;;5046858;28;20130;-73
2022/12/29 04:44:30;;;;;;;5.10;1.27;;;12.10;94.10;;;;;;5046601;28;20037;-74
2022/12/29 04:46:56;;;;;;;1.52;0.82;;;;;;;;;;5045161;28;20032;-73
2022/12/29 04:49:21;;;;;;;0.60;0.60;;;12.10;93.00;;;;;;5047320;28;20302;-74
2022/12/29 04:51:47;;;;;;;3.15;1.02;;;12.00;94.40;;;;;;5046817;28;20292;-74
2022/12/29 04:54:13;;;;;;;0.50;0.50;;;11.90;94.60;;;;;;5047535;28;20027;-73
2022/12/29 04:56:38;;;;;;;0.55;0.55;;;11.90;95.30;;;;;;5046017;28;20025;-74
2022/12/29 04:59:04;;;;;;;1.23;0.68;;;11.70;94.90;;;;;;5046256;28;20051;-74
2022/12/29 05:01:29;;;;;;;0.50;0.50;;;11.80;95.20;;;;;;5044623;28;20024;-75
2022/12/29 05:03:55;;;;;;;0.88;0.88;;;11.80;94.80;;;;;;5047010;28;20256;-74
2022/12/29 05:06:21;;;;;;;0.60;0.30;;;11.90;94.20;;;;;;5046583;28;20072;-72
2022/12/29 05:08:46;;;;;;;0.60;0.60;;;11.90;94.60;;;;;;5048858;28;20021;-75
2022/12/29 05:11:12;;;;;;;2.53;0.75;;;11.90;94.60;;;;;;5050121;28;20075;-74
2022/12/29 05:13:38;;;;;;;0.85;0.75;;;11.80;94.50;;;;;;5050179;28;20557;-73
2022/12/29 05:16:04;;;;;;;0.73;0.65;;;;;;;;;;5049418;28;20116;-73
2022/12/29 05:18:30;;;;;;;0.60;0.50;;;;;;;;;;5050594;28;20096;-74
2022/12/29 05:20:56;;;;;;;2.88;1.40;;;;;;;;;;5050631;28;20123;-73
2022/12/29 05:23:21;;;;;;;5.13;0.75;;;12.00;94.10;;;;;;5048802;28;20367;-74
2022/12/29 05:25:47;;;;;;;0.95;0.70;;;12.10;94.40;;;;;;5048903;28;20071;-74
2022/12/29 05:28:13;;;;;;;0.68;0.68;;;12.00;94.10;;;;;;5050936;28;20025;-74
2022/12/29 05:30:39;;;;;;;1.10;0.55;;;12.00;94.50;;;;;;5050643;28;20029;-74
2022/12/29 05:33:06;;;;;;;2.50;0.95;;;12.00;94.40;;;;;;5050406;28;20017;-74
2022/12/29 05:35:32;;;;;;;0.55;0.55;;;12.00;94.60;;;;;;5050046;28;20526;-73
2022/12/29 05:37:58;;;;;;;2.75;1.88;;;11.90;94.40;;;;;;5049642;28;20049;-73
2022/12/29 05:40:24;;;;;;;1.70;0.85;;;;;;;;;;5050359;28;20047;-74
2022/12/29 05:42:49;;;;;;;1.95;0.85;;;12.10;93.60;;;;;;5048703;28;20111;-75
2022/12/29 05:45:15;;;;;;;1.80;0.75;;;11.90;94.30;;;;;;5049610;28;20112;-75
2022/12/29 05:47:41;;;;;;;0.85;0.70;;;;;;;;;;5049814;28;20033;-73
2022/12/29 05:50:07;;;;;;;0.50;0.50;;;11.90;95.00;;;;;;5049797;28;20040;-74
2022/12/29 05:52:33;;;;;;;0.52;0.50;;;11.90;95.00;;;;;;5049466;28;20028;-73
2022/12/29 05:54:58;;;;;;;2.33;0.50;;;11.90;94.80;;;;;;5047845;28;20517;-73
2022/12/29 05:57:24;;;;;;;2.17;1.15;;;;;;;;;;5047795;28;20052;-73
2022/12/29 05:59:50;;;;;;;0.50;0.50;;;11.50;93.40;;;;;;5049223;28;20243;-73
2022/12/29 06:02:16;;;;;;;0.40;0.40;;;11.50;95.50;;;;;;5035464;28;20489;-73
2022/12/29 06:04:42;;;;;;;0.80;0.70;;;;;;;;;;5029912;28;20029;-73
2022/12/29 06:07:07;;;;;;;0.90;0.80;;;11.50;95.60;;;;;;5030377;28;20052;-73
2022/12/29 06:09:33;;;;;;;0.70;0.70;;;;;;;;;;5030914;28;20057;-71
2022/12/29 06:11:59;;;;;;;0.70;0.43;;;11.50;94.10;;;;;;5030643;28;20104;-72
2022/12/29 06:14:24;;;;;;;0.63;0.52;;;11.50;95.30;;;;;;5028509;28;20033;-74
2022/12/29 06:16:50;;;;;;;1.48;0.52;;;11.30;95.50;;;;;;5029921;28;20026;-74
2022/12/29 06:19:16;;;;;;;1.30;0.50;;;11.40;96.00;;;;;;5028954;28;20048;-73
2022/12/29 06:21:42;;;;;;;0.25;0.20;;;;;;;;;;5029441;28;20033;-74
2022/12/29 06:24:07;;;;;;;0.50;0.47;;;11.10;95.30;;;;;;5029586;28;20045;-74
2022/12/29 06:26:33;;;;;;;0.43;0.43;;;11.10;96.40;;;;;;5029687;28;20131;-73
2022/12/29 06:28:59;;;;;;;0.57;0.52;;;10.90;96.40;;;;;;5028855;28;20025;-74
2022/12/29 06:31:24;;;;;;;0.30;0.30;;;11.00;96.40;;;;;;5029474;28;20132;-73
2022/12/29 06:33:50;;;;;;;0.20;0.20;;;11.10;96.30;;;;;;5029541;28;20026;-73
2022/12/29 06:36:16;;;;;;;1.75;0.50;;;11.10;96.30;;;;;;5029687;28;20041;-73
2022/12/29 06:38:41;;;;;;;0.75;0.52;;;11.00;96.50;;;;;;5028419;28;20052;-73
2022/12/29 06:41:07;;;;;;;0.63;0.43;;;;;;;;;;5029513;28;20117;-73
2022/12/29 06:43:33;;;;;;;0.98;0.45;;;11.30;96.00;;;;;;5028593;28;20025;-74
2022/12/29 06:45:59;;;;;;;0.40;0.35;;;11.30;96.10;;;;;;5034267;28;20229;-73
2022/12/29 06:48:25;;;;;;;0.52;0.30;;;;;;;;;;5037008;28;20132;-74
2022/12/29 06:50:50;;;;;;;0.47;0.35;;;11.40;96.00;;;;;;5030613;28;20026;-74
2022/12/29 06:53:16;;;;;;;0.63;0.63;;;11.50;96.20;;;;;;5037496;28;20208;-73
2022/12/29 06:55:42;;;;;;;0.20;0.20;;;;;;;;;;5038307;28;20069;-73
2022/12/29 06:58:09;;;;;;;0.57;0.57;;;;;;;;;;5030789;28;20017;-72
2022/12/29 07:00:34;;;;;;;0.63;0.43;;;11.80;94.40;;;;;;5048658;28;20401;-72
2022/12/29 07:03:01;;;;;;;1.30;0.20;;;;;;;;;;5028632;28;20041;-72
2022/12/29 07:05:31;;;;;;;2.88;0.80;;;11.80;95.30;;;;;;5026748;28;20158;-72
2022/12/29 07:07:57;;;;;;;0.38;0.38;;;;;;;;;;5041557;28;20385;-72
2022/12/29 07:10:23;;;;;;;0.50;0.50;;;11.80;95.00;;;;;;5026750;28;20082;-73
2022/12/29 07:12:48;;;;;;;0.40;0.30;;;11.80;95.70;;;;;;5026403;28;20025;-73
2022/12/29 07:15:14;;;;;;;1.48;0.50;;;11.80;95.80;;;;;;5026380;28;20544;-74
2022/12/29 07:17:40;;;;;;;0.32;0.32;;;;;;;;;;5026067;28;20029;-73
2022/12/29 07:20:07;;;;;;;1.73;0.52;;;;;;;;;;5027121;28;20033;-72
2022/12/29 07:22:32;;;;;;;0.63;0.60;;;11.90;95.10;;;;;;5028260;28;20052;-73
2022/12/29 07:24:58;;;;;;;3.55;0.40;;;12.00;95.30;;;;;;5028521;28;20056;-72
2022/12/29 07:27:24;;;;;;;0.68;0.68;;;12.20;94.70;;;;;;5027753;28;20484;-72
2022/12/29 07:29:49;;;;;;;1.60;0.40;;;12.70;95.00;;;;;;5027464;28;20034;-73
2022/12/29 07:32:15;;;;;;;0.55;0.55;;;12.30;94.50;;;;;;5027905;28;20068;-73
2022/12/29 07:34:41;;;;;;;0.52;0.40;;;;;;;;;;5027417;28;20541;-74
2022/12/29 07:37:07;;;;;;;0.30;0.30;;;12.40;92.70;;;;;;5027966;28;20036;-74
2022/12/29 07:39:32;;;;;;;0.75;0.30;;;12.60;93.90;;;;;;5026966;28;20042;-72
2022/12/29 07:41:58;;;;;;;0.60;0.60;;;12.50;94.10;;;;;;5026293;28;20372;-73
2022/12/29 07:44:24;;;;;;;0.30;0.30;;;12.50;94.50;;;;;;5027043;28;20033;-72
2022/12/29 07:46:49;;;;;;;1.38;0.55;;;12.60;94.50;;;;;;5025899;28;20025;-73
2022/12/29 07:49:15;;;;;;;0.40;0.40;;;12.60;94.50;;;;;;5027454;28;20500;-72
2022/12/29 07:51:40;;;;;;;0.95;0.40;;;12.60;94.60;;;;;;5045225;28;20029;-72
2022/12/29 07:54:06;;;;;;;0.52;0.28;;;12.60;94.70;;;;;;5047010;28;20021;-72
2022/12/29 07:56:31;;;;;;;1.38;0.40;;;12.60;94.60;;;;;;5047154;28;20058;-72
2022/12/29 07:58:57;;;;;;;1.75;0.50;;;12.70;99.90;;;;;;5046530;28;20104;-73
2022/12/29 08:01:23;;;;;;;1.08;0.60;;;12.60;94.50;;;;;;5055899;28;20029;-73
2022/12/29 08:03:49;;;;;;;1.10;0.85;;;12.60;94.70;;;;;;5025776;28;20394;-73
2022/12/29 08:06:15;;;;;;;0.50;0.50;;;12.70;94.90;;;;;;5029105;28;20472;-74
2022/12/29 08:08:41;;;;;;;0.45;0.40;;;;;;;;;;5045306;28;20206;-74
2022/12/29 08:11:06;;;;;;;1.50;0.50;;;12.50;94.10;;;;;;5045776;28;20502;-74
2022/12/29 08:13:32;;;;;;;0.55;0.55;;;;;;;;;;5046539;28;20028;-73
2022/12/29 08:15:58;;;;;;;1.40;0.68;;;;;;;;;;5046880;28;20033;-74
2022/12/29 08:18:24;;;;;;;3.97;1.00;;;12.40;93.80;;;;;;5046311;28;20025;-74
2022/12/29 08:20:50;;;;;;;0.50;0.50;;;;;;;;;;5046769;28;20208;-74
2022/12/29 08:23:16;;;;;;;0.50;0.50;;;12.80;94.00;;;;;;5047230;28;20040;-74
2022/12/29 08:25:42;;;;;;;1.02;0.88;;;;;;;;;;5045281;28;20025;-74
2022/12/29 08:28:08;;;;;;;3.13;1.23;;;12.50;93.50;;;;;;5046519;28;20067;-74
2022/12/29 08:30:33;;;;;;;2.88;1.25;;;12.80;94.70;;;;;;5041709;28;20029;-75
2022/12/29 08:32:59;;;;;;;0.85;0.60;;;;;;;;;;5045773;28;20486;-75
2022/12/29 08:35:25;;;;;;;4.20;1.25;;;12.80;94.50;;;;;;5046091;28;20029;-73
2022/12/29 08:37:50;;;;;;;0.57;0.55;;;12.80;94.90;;;;;;5046462;28;20544;-74
2022/12/29 08:40:16;;;;;;;0.30;0.30;;;12.80;94.50;;;;;;5046349;28;20040;-74
2022/12/29 08:42:42;;;;;;;0.75;0.60;;;12.90;94.80;;;;;;5033173;28;20033;-74
2022/12/29 08:45:08;;;;;;;2.83;0.65;;;12.90;99.90;;;;;;5032543;28;20021;-76
2022/12/29 08:47:34;;;;;;;4.88;1.08;;;;;;;;;;5033162;28;20029;-74
2022/12/29 08:50:00;;;;;;;0.40;0.40;;;;;;;;;;5031298;28;20188;-75
2022/12/29 08:52:26;;;;;;;0.70;0.47;;;;;;;;;;5030995;28;20510;-75
2022/12/29 08:54:55;;;;;;;5.15;1.00;;;;;;;;;;5030743;28;20298;-74
2022/12/29 08:57:21;;;;;;;0.52;0.43;;;13.20;94.40;;;;;;5030376;28;20034;-73
2022/12/29 08:59:47;;;;;;;5.03;2.60;;;13.30;94.40;;;;;;5047903;28;20044;-74
2022/12/29 09:02:13;;;;;;;1.20;0.77;;;;;;;;;;5050989;28;20662;-74
2022/12/29 09:04:39;;;;;;;0.28;0.20;;;;;;;;;;5050955;28;20432;-74
2022/12/29 09:07:08;;;;;;;3.97;0.50;;;13.10;95.00;;;;;;5052801;28;20462;-77
2022/12/29 09:09:34;;;;;;;1.52;0.50;;;;;;;;;;5052524;28;20056;-75
2022/12/29 09:12:00;;;;;;;0.60;0.50;;;13.00;95.00;;;;;;5062056;28;20058;-75
2022/12/29 09:14:26;;;;;;;0.68;0.52;;;12.90;96.60;;;;;;5053433;28;20028;-75
2022/12/29 09:19:37;;;;;;;0.50;0.30;;;;;;;;;;5052082;28;20027;-75
2022/12/29 09:22:03;;;;;;;1.95;1.00;;;;;;;;;;5052306;28;20032;-76
2022/12/29 09:24:30;;;;;;;0.75;0.60;;;;;;;;;;5052685;28;20050;-74
2022/12/29 09:26:56;;;;;;;0.52;0.52;;;;;;;;;;5052976;28;20029;-75
2022/12/29 09:29:23;;;;;;;0.57;0.47;;;;;;;;;;5053115;28;20039;-74
2022/12/29 09:31:49;;;;;;;0.63;0.63;;;;;;;;;;5052642;28;20028;-77
2022/12/29 09:34:15;;;;;;;0.60;0.55;;;;;;;;;;5052542;28;20161;-75
2022/12/29 09:36:41;;;;;;;0.55;0.50;;;12.80;95.50;;;;;;5068156;28;20430;-74
2022/12/29 09:39:07;;;;;;;1.00;0.90;;;;;;;;;;5052534;28;20578;-74
2022/12/29 09:41:49;;;;;;;1.73;1.10;;;12.70;95.60;;;;;;5052844;28;20149;-74
2022/12/29 09:44:28;;;;;;;5.07;1.98;;;12.70;97.30;;;;;;5052284;28;20017;-74
2022/12/29 09:46:56;;;;;;;10.80;2.33;;;12.80;96.20;;;;;;5052802;28;20466;-75
2022/12/29 09:49:28;;;;;;;2.83;0.65;;;12.70;97.10;;;;;;5052209;28;20027;-75
2022/12/29 09:51:57;;;;;;;2.13;1.25;;;12.80;96.60;;;;;;5052503;28;20231;-74
2022/12/29 09:54:41;;;;;;;0.70;0.50;;;;;;;;;;5050547;28;20422;-75
2022/12/29 09:57:21;;;;;;;0.65;0.63;;;13.30;97.00;;;;;;5049379;28;20494;-74
2022/12/29 09:59:50;;;;;;;2.17;0.90;;;13.00;95.90;;;;;;5048975;28;20651;-75
2022/12/29 10:02:39;;;;;;;0.57;0.43;;;13.10;95.50;;;;;;5055563;28;20037;-75
2022/12/29 10:05:20;;;;;;;3.85;1.05;;;13.20;96.30;;;;;;5057123;28;20021;-74
2022/12/29 10:08:03;;;;;;;0.55;0.55;;;13.20;95.90;;;;;;5052976;28;20033;-74
2022/12/29 10:10:37;;;;;;;0.75;0.75;;;13.40;95.50;;;;;;5054797;28;20132;-74
2022/12/29 10:13:35;;;;;;;0.60;0.60;;;13.50;97.50;;;;;;5051102;28;20021;-75
2022/12/29 10:16:14;;;;;;;2.95;0.65;;;13.40;96.90;;;;;;5024026;28;20049;-74
2022/12/29 10:19:12;;;;;;;4.28;0.77;;;13.60;95.70;;;;;;5047022;28;20040;-74
2022/12/29 10:21:58;;;;;;;0.38;0.38;;;13.70;96.20;;;;;;5051469;28;20044;-74
2022/12/29 10:24:26;;;;;;;0.47;0.47;;;14.00;96.10;;;;;;5057317;28;20024;-76
2022/12/29 10:26:52;;;;;;;0.82;0.40;;;;;;;;;;5060637;28;20017;-74
2022/12/29 10:29:27;;;;;;;0.40;0.40;;;13.60;95.30;;;;;;5058333;28;20020;-75
2022/12/29 10:32:01;;;;;;;1.35;0.52;;;13.60;96.60;;;;;;5058390;28;20021;-74
2022/12/29 10:34:36;;;;;;;2.38;0.50;;;14.00;94.70;;;;;;5047904;28;20017;-74
2022/12/29 10:37:10;;;;;;;0.95;0.50;;;14.10;95.80;;;;;;5050411;28;20029;-74
2022/12/29 10:39:55;;;;;;;0.77;0.40;;;13.90;94.10;;;;;;5055121;28;20090;-74
2022/12/29 10:42:27;;;;;;;1.38;0.47;;;14.00;95.60;;;;;;5052910;28;20252;-74
2022/12/29 10:44:58;;;;;;;0.40;0.40;;;13.80;95.20;;;;;;5058664;28;20029;-75
2022/12/29 10:47:28;;;;;;;0.20;0.20;;;14.10;95.70;;;;;;5056295;28;20014;-74
2022/12/29 10:49:54;;;;;;;0.47;0.47;;;13.80;95.50;;;;;;5055184;28;20079;-74
2022/12/29 10:52:22;;;;;;;0.40;0.30;;;15.40;95.90;;;;;;5042579;28;20029;-74
2022/12/29 10:54:51;;;;;;;0.32;0.32;;;14.00;95.40;;;;;;5040474;28;20083;-75
2022/12/29 10:57:35;;;;;;;3.28;0.63;;;13.90;95.80;;;;;;5042838;28;20021;-73
2022/12/29 11:00:01;;;;;;;1.10;0.50;;;13.70;95.30;;;;;;5049605;28;20041;-73
2022/12/29 11:02:30;;;;;;;0.20;0.20;;;;;;;;;;5032852;28;20405;-73
2022/12/29 11:05:08;;;;;;;2.45;0.40;;;13.80;95.60;;;;;;5025978;28;20152;-73
2022/12/29 11:07:34;;;;;;;1.50;0.27;;;13.90;94.60;;;;;;5027116;28;20060;-73
2022/12/29 11:10:30;;;;;;;0.25;0.25;;;13.90;95.20;;;;;;5025956;28;20459;-73
2022/12/29 11:13:26;;;;;;;3.30;0.32;;;14.00;96.30;;;;;;5024688;28;20029;-73
2022/12/29 11:15:52;;;;;;;0.17;0.17;;;14.00;94.50;;;;;;5025900;28;20057;-73
2022/12/29 11:18:19;;;;;;;0.60;0.60;;;13.60;94.70;;;;;;5026197;28;20492;-73
2022/12/29 11:20:45;;;;;;;2.70;0.45;;;13.70;95.20;;;;;;5023949;28;20025;-73
2022/12/29 11:23:32;;;;;;;0.30;0.30;;;13.70;95.20;;;;;;5027535;28;20238;-73
2022/12/29 11:26:17;;;;;;;0.30;0.30;;;13.40;94.40;;;;;;5028004;28;20109;-73
2022/12/29 11:28:46;;;;;;;0.90;0.90;;;13.60;96.10;;;;;;5026674;28;20206;-74
2022/12/29 11:31:17;;;;;;;1.33;0.40;;;13.70;96.60;;;;;;5027257;28;20079;-73
2022/12/29 11:33:42;;;;;;;0.30;0.30;;;13.60;96.40;;;;;;5042473;28;20044;-73
2022/12/29 11:36:16;;;;;;;2.03;0.52;;;13.60;97.20;;;;;;5027829;28;20434;-73
2022/12/29 11:38:46;;;;;;;0.32;0.32;;;;;;;;;;5027794;28;20045;-73
2022/12/29 11:41:19;;;;;;;0.65;0.30;;;13.60;97.40;;;;;;5026963;28;20425;-73
2022/12/29 11:43:47;;;;;;;0.30;0.30;;;13.60;97.20;;;;;;5027457;28;20026;-73
2022/12/29 11:46:35;;;;;;;0.40;0.40;;;13.70;95.90;;;;;;5027515;28;20036;-72
2022/12/29 11:49:03;;;;;;;1.85;0.75;;;14.00;96.80;;;;;;5026213;28;20317;-73
2022/12/29 11:51:35;;;;;;;3.75;0.73;;;14.10;96.20;;;;;;5027472;28;20534;-73
2022/12/29 11:54:03;;;;;;;0.25;0.25;;;14.10;96.30;;;;;;5027520;28;20025;-73
2022/12/29 11:56:49;;;;;;;0.30;0.22;;;14.40;96.70;;;;;;5027314;28;20433;-73
2022/12/29 11:59:37;;;;;;;0.30;0.30;;;14.50;96.50;;;;;;5025602;28;20018;-73
2022/12/29 12:02:20;;;;;;;0.60;0.38;;;14.50;96.20;;;;;;5038427;28;20558;-73
2022/12/29 12:04:46;;;;;;;0.28;0.28;;;14.50;95.40;;;;;;5047490;28;20036;-72
2022/12/29 12:07:42;;;;;;;0.73;0.22;;;14.40;95.50;;;;;;5046634;28;20553;-73
2022/12/29 12:10:20;;;;;;;2.90;0.22;;;14.50;94.90;;;;;;5041719;28;20044;-73
2022/12/29 12:13:08;;;;;;;2.13;0.28;;;15.10;94.20;;;;;;5046811;28;20474;-73
2022/12/29 12:15:42;;;;;;;0.90;0.60;;;14.30;95.70;;;;;;5045216;28;20040;-73
2022/12/29 12:18:29;;;;;;;3.20;0.50;;;14.20;95.00;;;;;;5044583;28;20032;-73
2022/12/29 12:20:58;;;;;;;0.38;0.20;;;;;;;;;;5062371;28;20021;-73
2022/12/29 12:23:38;;;;;;;0.63;0.38;;;14.30;95.50;;;;;;5046578;28;20025;-73
2022/12/29 12:26:14;;;;;;;1.15;0.45;;;14.30;95.90;;;;;;5046681;28;20497;-73
2022/12/29 12:28:54;;;;;;;0.47;0.38;;;14.00;95.90;;;;;;5046396;28;20033;-73
2022/12/29 12:31:45;;;;;;;;;;;14.00;95.20;;;;;;5047797;28;20541;-73
2022/12/29 12:34:20;;;;;;;1.52;0.28;;;14.50;94.90;;;;;;5045567;28;20337;-73
2022/12/29 12:36:56;;;;;;;4.45;0.70;;;14.10;95.40;;;;;;5061974;28;20072;-73
2022/12/29 12:39:31;;;;;;;0.25;0.25;;;13.90;95.80;;;;;;5046405;28;20120;-73
2022/12/29 12:41:59;;;;;;;3.03;0.47;;;13.90;94.70;;;;;;5046467;28;20063;-73
2022/12/29 12:44:42;;;;;;;0.40;0.40;;;;;;;;;;5046464;28;20099;-73
2022/12/29 12:47:31;;;;;;;1.08;0.80;;;13.90;95.20;;;;;;5046485;28;20103;-73
2022/12/29 12:50:06;;;;;;;;;;;14.00;95.10;;;;;;5046881;28;20056;-73
2022/12/29 12:53:12;;;;;;;0.20;0.20;;;14.00;94.80;;;;;;5046244;28;19913;-73
2022/12/29 12:56:02;;;;;;;2.25;1.00;;;13.80;95.90;;;;;;5046876;28;20033;-74
2022/12/29 12:58:54;;;;;;;0.85;0.45;;;13.90;95.60;;;;;;5046093;28;20032;-73
2022/12/29 13:01:38;;;;;;;0.20;0.20;;;;;;;;;;5022694;28;20442;-74
2022/12/29 13:04:12;;;;;;;0.77;0.40;;;;;;;;;;5046142;28;20124;-73
2022/12/29 13:07:08;;;;;;;0.68;0.40;;;13.60;95.50;;;;;;5046723;28;20510;-73
2022/12/29 13:09:46;;;;;;;0.98;0.52;;;13.40;97.20;;;;;;5045297;28;20064;-72
2022/12/29 13:12:33;;;;;;;0.20;0.20;;;13.10;98.20;;;;;;5044616;28;20021;-73
2022/12/29 13:15:20;;;;;;;2.90;1.63;;;13.50;98.00;;;;;;5046544;28;20041;-72
2022/12/29 13:18:02;;;;;;;14.85;6.38;;;12.60;99.90;;;;;;5046154;28;20033;-73
2022/12/29 13:20:36;;;;;;;2.05;1.85;;;12.30;99.90;;;;;;5046637;28;20075;-73
2022/12/29 13:23:17;;;;;;;0.90;0.90;;;12.40;99.90;;;;;;5045907;28;20029;-73
2022/12/29 13:25:51;;;;;;;1.85;0.85;;;;;;;;;;5046078;28;20052;-74
2022/12/29 13:28:17;;;;;;;0.73;0.50;;;12.40;99.90;;;;;;5045507;28;20025;-72
2022/12/29 13:30:53;;;;;;;0.88;0.88;;;14.20;99.90;;;;;;5048497;28;20033;-73
2022/12/29 13:33:24;;;;;;;2.40;1.27;;;12.60;99.90;;;;;;5049521;28;20371;-73
2022/12/29 13:36:20;;;;;;;2.40;2.20;;;12.50;99.90;;;;;;5049977;28;20094;-73
2022/12/29 13:38:51;;;;;;;4.47;1.35;;;12.70;99.90;;;;;;5037279;28;20052;-73
2022/12/29 13:41:56;;;;;;;5.10;2.65;;;12.80;99.90;;;;;;5049679;28;20537;-73
2022/12/29 13:44:29;;;;;;;1.52;1.42;;;12.80;99.90;;;;;;5006836;28;20069;-73
2022/12/29 13:46:56;;;;;;;1.27;0.75;;;;;;;;;;5042986;28;20040;-73
2022/12/29 13:49:25;;;;;;;2.00;1.05;;;12.80;99.90;;;;;;5049925;28;20021;-73
2022/12/29 13:51:58;;;;;;;0.98;0.45;;;13.00;99.90;;;;;;5049809;28;20024;-73
2022/12/29 13:54:26;;;;;;;0.65;0.50;;;13.10;99.90;;;;;;5049475;28;20476;-73
2022/12/29 13:57:19;;;;;;;4.00;0.30;;;13.10;98.70;;;;;;5049583;28;20063;-73
2022/12/29 14:00:12;;;;;;;0.40;0.32;;;13.20;98.50;;;;;;5047647;28;20449;-73
2022/12/29 14:02:47;;;;;;;0.45;0.30;;;;;;;;;;5061163;28;20044;-73
2022/12/29 14:05:21;;;;;;;0.93;0.30;;;13.20;98.80;;;;;;5048208;28;20346;-73
2022/12/29 14:07:58;;;;;;;1.85;0.45;;;13.10;96.70;;;;;;5049650;28;20029;-73
2022/12/29 14:10:47;;;;;;;0.65;0.32;;;13.30;97.80;;;;;;5049450;28;20083;-72